KPUW/PUW METAR and TAF weather

Enter ICAO airport designator
Station Type Date Time Source
KPUW METAR 2019/10/18 10:53 UTC NOAA

KPUW 181053Z AUTO 24017G26KT 10SM OVC024 08/03 A2978 RMK AO2 PK WND 25029/1034 SLP088 T00780033


Station Type Date Time Source
KPUW Decoded METAR 2019/10/18 10:53 UTC NOAA

PULLMAN/MOSCOW RGNL AIRPORT , WA, United States (KPUW) 46-45N 117-07W 773M
Oct 18, 2019 - 06:53 AM EDT / 2019.10.18 1053 UTC
Wind: from the WSW (240 degrees) at 20 MPH (17 KT) gusting to 30 MPH (26 KT):0
Visibility: 10 mile(s):0
Sky conditions: overcast
Temperature: 46.0 F (7.8 C)
Dew Point: 37.9 F (3.3 C)
Relative Humidity: 73%
Pressure (altimeter): 29.78 in. Hg (1008 hPa)
ob: KPUW 181053Z AUTO 24017G26KT 10SM OVC024 08/03 A2978 RMK AO2 PK WND 25029/1034 SLP088 T00780033
cycle: 11

Station Type Date Time Source
KPUW TAF 2019/10/18 06:34 UTC NOAA

TAF KPUW 180531Z 1806/1906 20005KT P6SM BKN050
FM180800 23015G24KT P6SM -RA BKN020 OVC040
FM181200 24020G30KT P6SM BKN030
FM181600 24018G28KT P6SM SCT030 SCT100
FM190300 20008KT P6SM BKN050 BKN090

Example: see airport list